Time;durP1;ratioP1;P1;durP2;ratioP2;P2;SDS_P1;SDS_P2;PMS_P1;PMS_P2;Temp;Humidity;BMP_temperature;BMP_pressure;BME280_temperature;BME280_humidity;BME280_pressure;Samples;Min_cycle;Max_cycle;Signal;HPM_P1;HPM_P2
2023/11/27 00:01:08;;;;;;;;;;;11.10;93.20;;;;;;5088408;28;20126;-71
2023/11/27 00:03:33;;;;;;;;;;;11.00;93.20;;;;;;5089664;28;20127;-70
2023/11/27 00:05:59;;;;;;;;;;;11.00;93.20;;;;;;5089619;28;19917;-71
2023/11/27 00:08:25;;;;;;;;;;;11.00;93.20;;;;;;5089536;28;19912;-71
2023/11/27 00:10:50;;;;;;;;;;;11.00;93.20;;;;;;5089500;28;19914;-71
2023/11/27 00:13:16;;;;;;;;;;;11.00;93.20;;;;;;5088274;28;20352;-71
2023/11/27 00:15:41;;;;;;;;;;;11.00;93.20;;;;;;5088945;28;19908;-71
2023/11/27 00:18:07;;;;;;;;;;;11.00;93.20;;;;;;5089490;28;19919;-71
2023/11/27 00:20:33;;;;;;;;;;;11.00;93.20;;;;;;5089423;28;20010;-71
2023/11/27 00:22:58;;;;;;;;;;;11.00;93.20;;;;;;5089546;28;19951;-71
2023/11/27 00:25:24;;;;;;;;;;;11.00;93.20;;;;;;5089393;28;19923;-71
2023/11/27 00:27:49;;;;;;;;;;;11.00;93.20;;;;;;5087919;28;19916;-71
2023/11/27 00:30:16;;;;;;;;;;;11.00;93.20;;;;;;5089293;28;20291;-71
2023/11/27 00:32:41;;;;;;;;;;;11.00;93.20;;;;;;5089457;28;20280;-71
2023/11/27 00:35:08;;;;;;;;;;;11.00;93.20;;;;;;5089128;28;19920;-71
2023/11/27 00:37:33;;;;;;;;;;;11.00;93.20;;;;;;5089101;28;20005;-71
2023/11/27 00:39:59;;;;;;;;;;;11.00;93.20;;;;;;5088913;28;20070;-71
2023/11/27 00:42:24;;;;;;;;;;;11.00;93.20;;;;;;5088918;28;19919;-71
2023/11/27 00:44:50;;;;;;;;;;;11.00;93.20;;;;;;5089004;28;19924;-71
2023/11/27 00:47:15;;;;;;;;;;;11.00;93.20;;;;;;5089277;28;20390;-71
2023/11/27 00:49:41;;;;;;;;;;;11.00;93.20;;;;;;5088821;28;19908;-71
2023/11/27 00:52:07;;;;;;;;;;;11.00;93.20;;;;;;5088826;28;19920;-71
2023/11/27 00:54:33;;;;;;;;;;;10.90;93.20;;;;;;5088765;28;20388;-71
2023/11/27 00:56:58;;;;;;;;;;;10.90;93.20;;;;;;5088800;28;19913;-71
2023/11/27 00:59:24;;;;;;;;;;;10.90;93.20;;;;;;5087468;28;19919;-71
2023/11/27 01:01:49;;;;;;;;;;;10.90;93.20;;;;;;5088671;28;20013;-71
2023/11/27 01:04:15;;;;;;;;;;;10.90;93.20;;;;;;5088461;28;20019;-71
2023/11/27 01:06:42;;;;;;;;;;;10.90;93.20;;;;;;5088676;28;19957;-71
2023/11/27 01:09:08;;;;;;;;;;;10.90;93.20;;;;;;5088491;28;19943;-71
2023/11/27 01:11:34;;;;;;;;;;;10.90;93.30;;;;;;5088622;28;19920;-71
2023/11/27 01:14:00;;;;;;;;;;;10.90;93.30;;;;;;5088614;28;19912;-71
2023/11/27 01:16:26;;;;;;;;;;;10.90;93.30;;;;;;5088350;28;19919;-71
2023/11/27 01:18:52;;;;;;;;;;;10.90;93.20;;;;;;5088326;28;19908;-71
2023/11/27 01:21:17;;;;;;;;;;;10.90;93.30;;;;;;5088430;28;20016;-71
2023/11/27 01:23:43;;;;;;;;;;;11.00;93.20;;;;;;5088426;28;19942;-71
2023/11/27 01:26:09;;;;;;;;;;;10.90;93.20;;;;;;5088333;28;20387;-71
2023/11/27 01:28:36;;;;;;;;;;;10.90;93.20;;;;;;5087010;28;19912;-71
2023/11/27 01:31:03;;;;;;;;;;;10.90;93.20;;;;;;5087250;28;20334;-71
2023/11/27 01:33:29;;;;;;;;;;;10.90;93.20;;;;;;5088176;28;20127;-71
2023/11/27 01:35:54;;;;;;;;;;;10.90;93.20;;;;;;5088217;28;19912;-71
2023/11/27 01:38:20;;;;;;;;;;;10.90;93.20;;;;;;5088150;28;20007;-71
2023/11/27 01:40:45;;;;;;;;;;;10.90;93.20;;;;;;5087968;28;19922;-71
2023/11/27 01:43:14;;;;;;;;;;;10.90;93.20;;;;;;5088078;28;20296;-71
2023/11/27 01:45:39;;;;;;;;;;;10.90;93.20;;;;;;5070145;28;19916;-71
2023/11/27 01:48:05;;;;;;;;;;;10.90;93.20;;;;;;5088105;28;20288;-71
2023/11/27 01:50:31;;;;;;;;;;;10.90;93.20;;;;;;5087764;28;19919;-71
2023/11/27 01:52:56;;;;;;;;;;;10.90;93.20;;;;;;5088083;28;19965;-71
2023/11/27 01:55:23;;;;;;;;;;;10.90;93.20;;;;;;5086658;28;19912;-71
2023/11/27 01:57:49;;;;;;;;;;;10.90;93.20;;;;;;5088327;28;19912;-71
2023/11/27 02:00:15;;;;;;;;;;;10.90;93.20;;;;;;5087831;28;20265;-71
2023/11/27 02:02:42;;;;;;;;;;;11.00;93.30;;;;;;5087818;28;19936;-71
2023/11/27 02:05:08;;;;;;;;;;;11.00;93.20;;;;;;5087897;28;19964;-71
2023/11/27 02:07:33;;;;;;;;;;;11.00;93.20;;;;;;5086526;28;20006;-71
2023/11/27 02:09:59;;;;;;;;;;;11.00;93.20;;;;;;5087909;28;19922;-71
2023/11/27 02:12:25;;;;;;;;;;;11.00;93.20;;;;;;5088025;28;20188;-71
2023/11/27 02:14:52;;;;;;;;;;;11.00;93.20;;;;;;5087987;28;19920;-72
2023/11/27 02:17:18;;;;;;;;;;;11.00;93.20;;;;;;5087696;28;19957;-72
2023/11/27 02:19:43;;;;;;;;;;;10.90;93.20;;;;;;5069450;28;20311;-72
2023/11/27 02:22:09;;;;;;;;;;;11.00;93.20;;;;;;5087748;28;19938;-71
2023/11/27 02:24:34;;;;;;;;;;;10.90;93.20;;;;;;5086382;28;19963;-72
2023/11/27 02:27:00;;;;;;;;;;;11.00;93.20;;;;;;5087761;28;19912;-72
2023/11/27 02:29:25;;;;;;;;;;;10.90;93.20;;;;;;5087692;28;19912;-72
2023/11/27 02:31:51;;;;;;;;;;;10.90;93.20;;;;;;5087718;28;20402;-72
2023/11/27 02:34:17;;;;;;;;;;;10.90;93.20;;;;;;5087631;28;19922;-72
2023/11/27 02:36:43;;;;;;;;;;;10.90;93.20;;;;;;5087612;28;19952;-72
2023/11/27 02:39:09;;;;;;;;;;;10.90;93.20;;;;;;5090672;28;19917;-72
2023/11/27 02:41:35;;;;;;;;;;;10.90;93.20;;;;;;5091674;28;19961;-72
2023/11/27 02:44:01;;;;;;;;;;;10.90;93.20;;;;;;5091257;28;19912;-72
2023/11/27 02:46:26;;;;;;;;;;;10.90;93.20;;;;;;5091197;28;19919;-72
2023/11/27 02:48:52;;;;;;;;;;;10.90;93.20;;;;;;5091289;28;20306;-72
2023/11/27 02:51:20;;;;;;;;;;;11.00;93.20;;;;;;5091212;28;20296;-72
2023/11/27 02:53:45;;;;;;;;;;;10.90;93.20;;;;;;5091176;28;20015;-72
2023/11/27 02:56:11;;;;;;;;;;;10.90;93.20;;;;;;5091170;28;20006;-72
2023/11/27 02:58:38;;;;;;;;;;;10.90;93.10;;;;;;5091021;28;19916;-72
2023/11/27 03:01:05;;;;;;;;;;;10.90;93.10;;;;;;5091017;28;20403;-72
2023/11/27 03:03:30;;;;;;;;;;;10.90;93.10;;;;;;5090852;28;20402;-72
2023/11/27 03:05:56;;;;;;;;;;;10.90;93.20;;;;;;5090958;28;19912;-72
2023/11/27 03:08:21;;;;;;;;;;;10.90;93.20;;;;;;5090967;28;19912;-72
2023/11/27 03:10:47;;;;;;;;;;;10.90;93.20;;;;;;5089574;28;19919;-71
2023/11/27 03:13:12;;;;;;;;;;;10.90;93.10;;;;;;5089617;28;19912;-72
2023/11/27 03:15:38;;;;;;;;;;;10.90;93.20;;;;;;5089441;28;20140;-72
2023/11/27 03:18:03;;;;;;;;;;;10.90;93.20;;;;;;5089309;28;20295;-71
2023/11/27 03:20:29;;;;;;;;;;;10.80;93.10;;;;;;5090469;28;19916;-71
2023/11/27 03:22:55;;;;;;;;;;;10.80;93.10;;;;;;5090539;28;19912;-72
2023/11/27 03:25:20;;;;;;;;;;;10.80;93.10;;;;;;5090756;28;20351;-72
2023/11/27 03:27:46;;;;;;;;;;;10.80;93.10;;;;;;5090544;28;19908;-72
2023/11/27 03:30:11;;;;;;;;;;;10.70;93.10;;;;;;5090370;28;19959;-72
2023/11/27 03:32:37;;;;;;;;;;;10.70;93.10;;;;;;5089292;28;19912;-72
2023/11/27 03:35:04;;;;;;;;;;;10.60;93.10;;;;;;5090460;28;19981;-72
2023/11/27 03:37:30;;;;;;;;;;;10.60;93.10;;;;;;5090326;28;19920;-72
2023/11/27 03:39:56;;;;;;;;;;;10.60;93.10;;;;;;5090223;28;20014;-72
2023/11/27 03:42:21;;;;;;;;;;;10.50;93.10;;;;;;5089081;28;20014;-72
2023/11/27 03:44:47;;;;;;;;;;;10.60;93.20;;;;;;5090323;28;19916;-72
2023/11/27 03:47:13;;;;;;;;;;;10.60;93.20;;;;;;5090157;28;20325;-71
2023/11/27 03:49:38;;;;;;;;;;;10.60;93.20;;;;;;5088926;28;19930;-72
2023/11/27 03:52:04;;;;;;;;;;;10.70;93.20;;;;;;5088549;28;19965;-72
2023/11/27 03:54:29;;;;;;;;;;;10.70;93.20;;;;;;5090035;28;19912;-72
2023/11/27 03:56:55;;;;;;;;;;;10.70;93.20;;;;;;5090061;28;20277;-71
2023/11/27 03:59:20;;;;;;;;;;;10.80;93.20;;;;;;5089887;28;19916;-72
2023/11/27 04:01:46;;;;;;;;;;;10.80;93.20;;;;;;5089852;28;19923;-72
2023/11/27 04:04:14;;;;;;;;;;;10.70;93.10;;;;;;5089691;28;20045;-71
2023/11/27 04:06:40;;;;;;;;;;;10.80;93.10;;;;;;5089833;28;19916;-72
2023/11/27 04:09:06;;;;;;;;;;;10.70;93.10;;;;;;5089736;28;20418;-72
2023/11/27 04:11:31;;;;;;;;;;;10.70;93.10;;;;;;5089735;28;19923;-72
2023/11/27 04:14:00;;;;;;;;;;;10.70;93.20;;;;;;5089520;28;20360;-72
2023/11/27 04:16:27;;;;;;;;;;;10.70;93.20;;;;;;5088974;28;20449;-72
2023/11/27 04:18:53;;;;;;;;;;;10.60;93.10;;;;;;5088173;28;20284;-72
2023/11/27 04:21:19;;;;;;;;;;;10.60;93.10;;;;;;5089394;28;20018;-72
2023/11/27 04:23:48;;;;;;;;;;;10.60;93.10;;;;;;5089461;28;19916;-72
2023/11/27 04:26:15;;;;;;;;;;;10.60;93.10;;;;;;5089459;28;19953;-72
2023/11/27 04:28:40;;;;;;;;;;;10.50;93.10;;;;;;5089183;28;19923;-72
2023/11/27 04:31:06;;;;;;;;;;;10.50;93.10;;;;;;5087955;28;19909;-72
2023/11/27 04:33:33;;;;;;;;;;;10.50;93.10;;;;;;5087852;28;20471;-72
2023/11/27 04:35:58;;;;;;;;;;;10.50;93.20;;;;;;5089323;28;19912;-71
2023/11/27 04:38:24;;;;;;;;;;;10.50;93.20;;;;;;5070821;28;19969;-72
2023/11/27 04:40:50;;;;;;;;;;;10.40;93.10;;;;;;5089081;28;19957;-71
2023/11/27 04:43:16;;;;;;;;;;;10.40;93.20;;;;;;5089272;28;19919;-72
2023/11/27 04:45:41;;;;;;;;;;;10.40;93.20;;;;;;5087738;28;19947;-72
2023/11/27 04:48:07;;;;;;;;;;;10.40;93.20;;;;;;5088922;28;20007;-72
2023/11/27 04:50:32;;;;;;;;;;;10.40;93.10;;;;;;5087583;28;19917;-72
2023/11/27 04:52:58;;;;;;;;;;;10.40;93.10;;;;;;5088859;28;20229;-72
2023/11/27 04:55:23;;;;;;;;;;;10.40;93.10;;;;;;5087773;28;19935;-72
2023/11/27 04:57:49;;;;;;;;;;;10.40;93.10;;;;;;5088880;28;19912;-71
2023/11/27 05:00:15;;;;;;;;;;;10.40;93.20;;;;;;5088218;28;20307;-72
2023/11/27 05:02:43;;;;;;;;;;;10.40;93.20;;;;;;5088564;28;19924;-72
2023/11/27 05:05:09;;;;;;;;;;;10.40;93.20;;;;;;5088651;28;20303;-73
2023/11/27 05:07:34;;;;;;;;;;;10.40;93.20;;;;;;5088722;28;19913;-72
2023/11/27 05:10:00;;;;;;;;;;;10.50;93.20;;;;;;5088588;28;20415;-72
2023/11/27 05:12:26;;;;;;;;;;;10.50;93.20;;;;;;5088660;28;20355;-72
2023/11/27 05:14:52;;;;;;;;;;;10.50;93.20;;;;;;5088499;28;19916;-72
2023/11/27 05:17:17;;;;;;;;;;;10.50;93.20;;;;;;5088471;28;19919;-72
2023/11/27 05:19:43;;;;;;;;;;;10.60;93.20;;;;;;5087139;28;19916;-71
2023/11/27 05:22:08;;;;;;;;;;;10.60;93.20;;;;;;5088317;28;19920;-72
2023/11/27 05:24:34;;;;;;;;;;;10.60;93.20;;;;;;5088315;28;20323;-72
2023/11/27 05:26:59;;;;;;;;;;;10.60;93.20;;;;;;5088442;28;19916;-72
2023/11/27 05:29:25;;;;;;;;;;;10.60;93.20;;;;;;5088368;28;19908;-72
2023/11/27 05:31:51;;;;;;;;;;;10.50;93.10;;;;;;5088390;28;19912;-72
2023/11/27 05:34:16;;;;;;;;;;;10.50;93.10;;;;;;5088248;28;19969;-71
2023/11/27 05:36:43;;;;;;;;;;;10.50;93.40;;;;;;5088246;28;19947;-72
2023/11/27 05:39:10;;;;;;;;;;;10.50;93.20;;;;;;5088169;28;19924;-72
2023/11/27 05:41:37;;;;;;;;;;;10.50;93.20;;;;;;5088138;28;19916;-72
2023/11/27 05:44:03;;;;;;;;;;;10.50;93.20;;;;;;5070053;28;20372;-72
2023/11/27 05:46:30;;;;;;;;;;;10.50;93.20;;;;;;5086682;28;19912;-72
2023/11/27 05:48:55;;;;;;;;;;;10.50;93.20;;;;;;5086560;28;19913;-72
2023/11/27 05:51:21;;;;;;;;;;;10.50;93.20;;;;;;5087998;28;20223;-72
2023/11/27 05:53:47;;;;;;;;;;;10.50;93.30;;;;;;5088007;28;20368;-72
2023/11/27 05:56:13;;;;;;;;;;;10.50;93.20;;;;;;5088038;28;19916;-72
2023/11/27 05:58:38;;;;;;;;;;;10.50;93.20;;;;;;5086631;28;19920;-72
2023/11/27 06:01:05;;;;;;;;;;;10.50;93.20;;;;;;5087717;28;19942;-72
2023/11/27 06:03:33;;;;;;;;;;;10.50;93.20;;;;;;5087826;28;20385;-72
2023/11/27 06:05:59;;;;;;;;;;;10.50;93.20;;;;;;5087764;28;19916;-71
2023/11/27 06:08:25;;;;;;;;;;;10.50;93.30;;;;;;5088049;28;20284;-72
2023/11/27 06:10:50;;;;;;;;;;;10.50;93.30;;;;;;5087842;28;20388;-71
2023/11/27 06:13:16;;;;;;;;;;;10.50;93.20;;;;;;5089725;28;19912;-72
2023/11/27 06:15:46;;;;;;;;;;;10.50;93.30;;;;;;5091979;28;19950;-71
2023/11/27 06:18:14;;;;;;;;;;;10.50;93.20;;;;;;5091877;28;19916;-71
2023/11/27 06:20:40;;;;;;;;;;;10.40;93.20;;;;;;5091616;28;19916;-72
2023/11/27 06:23:06;;;;;;;;;;;10.40;93.20;;;;;;5090363;28;20159;-71
2023/11/27 06:25:34;;;;;;;;;;;10.50;93.20;;;;;;5091697;28;19912;-71
2023/11/27 06:28:01;;;;;;;;;;;10.50;93.50;;;;;;5091696;28;19912;-71
2023/11/27 06:30:28;;;;;;;;;;;10.50;93.30;;;;;;5091444;28;20052;-71
2023/11/27 06:32:53;;;;;;;;;;;10.50;93.30;;;;;;5091312;28;19924;-72
2023/11/27 06:35:19;;;;;;;;;;;10.50;93.30;;;;;;5091320;28;19969;-72
2023/11/27 06:37:44;;;;;;;;;;;10.50;93.30;;;;;;5091244;28;19913;-72
2023/11/27 06:40:11;;;;;;;;;;;10.50;93.30;;;;;;5091085;28;19908;-72
2023/11/27 06:42:37;;;;;;;;;;;10.50;93.20;;;;;;5091307;28;19908;-71
2023/11/27 06:45:04;;;;;;;;;;;10.50;93.20;;;;;;5089690;28;19962;-72
2023/11/27 06:47:30;;;;;;;;;;;10.40;93.20;;;;;;5089835;28;19954;-71
2023/11/27 06:49:56;;;;;;;;;;;10.40;93.20;;;;;;5091038;28;19912;-71
2023/11/27 06:52:22;;;;;;;;;;;10.40;93.20;;;;;;5089695;28;20276;-71
2023/11/27 06:54:47;;;;;;;;;;;10.40;93.20;;;;;;5090854;28;19916;-71
2023/11/27 06:57:13;;;;;;;;;;;10.40;93.20;;;;;;5089672;28;19912;-72
2023/11/27 06:59:38;;;;;;;;;;;10.40;93.20;;;;;;5090701;28;19922;-72
2023/11/27 07:02:04;;;;;;;;;;;10.40;93.30;;;;;;5089395;28;19922;-72
2023/11/27 07:04:30;;;;;;;;;;;10.50;93.30;;;;;;5089490;28;19961;-72
2023/11/27 07:06:56;;;;;;;;;;;10.50;93.30;;;;;;5089531;28;19990;-72
2023/11/27 07:09:23;;;;;;;;;;;10.50;93.20;;;;;;5089572;28;19919;-71
2023/11/27 07:11:50;;;;;;;;;;;10.40;93.20;;;;;;5072525;28;19966;-71
2023/11/27 07:14:16;;;;;;;;;;;10.40;93.20;;;;;;5090465;28;19912;-72
2023/11/27 07:16:42;;;;;;;;;;;10.40;93.20;;;;;;5090611;28;19995;-72
2023/11/27 07:19:08;;;;;;;;;;;10.40;93.20;;;;;;5089113;28;19920;-72
2023/11/27 07:21:33;;;;;;;;;;;10.40;93.20;;;;;;5090507;28;19916;-72
2023/11/27 07:23:59;;;;;;;;;;;10.40;93.20;;;;;;5090292;28;19989;-72
2023/11/27 07:26:25;;;;;;;;;;;10.40;93.30;;;;;;5090577;28;19956;-72
2023/11/27 07:28:50;;;;;;;;;;;10.40;93.30;;;;;;5090290;28;20374;-72
2023/11/27 07:31:16;;;;;;;;;;;10.40;93.30;;;;;;5090165;28;20387;-72
2023/11/27 07:33:44;;;;;;;;;;;10.50;93.30;;;;;;5090254;28;19912;-72
2023/11/27 07:36:10;;;;;;;;;;;10.50;93.30;;;;;;5090582;28;19916;-76
2023/11/27 07:38:36;;;;;;;;;;;10.50;93.30;;;;;;5089236;28;20133;-76
2023/11/27 07:41:05;;;;;;;;;;;10.40;93.20;;;;;;5090482;28;20007;-75
2023/11/27 07:43:31;;;;;;;;;;;10.40;93.30;;;;;;5089736;28;19970;-74
2023/11/27 07:45:57;;;;;;;;;;;10.40;93.40;;;;;;5089608;28;19918;-66
2023/11/27 07:48:22;;;;;;;;;;;10.40;93.30;;;;;;5089846;28;19912;-74
2023/11/27 07:50:48;;;;;;;;;;;10.40;93.30;;;;;;5089631;28;19970;-74
2023/11/27 07:53:14;;;;;;;;;;;10.40;93.30;;;;;;5089583;28;19969;-74
2023/11/27 07:55:40;;;;;;;;;;;10.50;93.30;;;;;;5089526;28;19999;-74
2023/11/27 07:58:05;;;;;;;;;;;10.50;93.30;;;;;;5089248;28;19944;-78
2023/11/27 08:00:31;;;;;;;;;;;10.50;93.30;;;;;;5070561;28;19960;-75
2023/11/27 08:02:57;;;;;;;;;;;10.50;93.40;;;;;;5088985;28;20288;-76
2023/11/27 08:05:24;;;;;;;;;;;10.50;93.40;;;;;;5089123;28;19961;-75
2023/11/27 08:07:50;;;;;;;;;;;10.50;93.40;;;;;;5089230;28;19974;-75
2023/11/27 08:10:15;;;;;;;;;;;10.60;93.40;;;;;;5089716;28;19912;-75
2023/11/27 08:12:44;;;;;;;;;;;10.60;93.30;;;;;;5089117;28;19912;-75
2023/11/27 08:15:18;;;;;;;;;;;10.60;93.30;;;;;;5089049;28;19908;-76
2023/11/27 08:17:44;;;;;;;;;;;10.50;93.30;;;;;;5087386;28;20001;-75
2023/11/27 08:20:10;;;;;;;;;;;10.50;93.30;;;;;;5088809;28;19973;-75
2023/11/27 08:22:36;;;;;;;;;;;10.40;93.30;;;;;;5088745;28;20135;-75
2023/11/27 08:25:02;;;;;;;;;;;10.40;93.40;;;;;;5088525;28;19919;-76
2023/11/27 08:27:27;;;;;;;;;;;10.30;93.40;;;;;;5089271;28;19916;-76
2023/11/27 08:29:53;;;;;;;;;;;10.30;93.40;;;;;;5088995;28;20222;-75
2023/11/27 08:32:19;;;;;;;;;;;10.30;93.50;;;;;;5089016;28;19912;-75
2023/11/27 08:34:45;;;;;;;;;;;10.30;93.50;;;;;;5088914;28;19916;-75
2023/11/27 08:37:16;;;;;;;;;;;10.30;93.50;;;;;;5088418;28;19988;-75
2023/11/27 08:39:42;;;;;;;;;;;10.30;93.50;;;;;;5087356;28;19912;-75
2023/11/27 08:42:07;;;;;;;;;;;10.30;93.50;;;;;;5088717;28;19919;-76
2023/11/27 08:44:33;;;;;;;;;;;10.30;93.50;;;;;;5087060;28;20279;-76
2023/11/27 08:46:58;;;;;;;;;;;10.40;93.50;;;;;;5087199;28;19916;-75
2023/11/27 08:49:24;;;;;;;;;;;10.30;93.50;;;;;;5088470;28;19923;-76
2023/11/27 08:51:49;;;;;;;;;;;10.30;93.50;;;;;;5088344;28;20301;-76
2023/11/27 08:54:15;;;;;;;;;;;10.30;93.50;;;;;;5088180;28;20376;-76
2023/11/27 08:56:43;;;;;;;;;;;10.40;93.50;;;;;;5088141;28;20326;-75
2023/11/27 08:59:09;;;;;;;;;;;10.40;93.50;;;;;;5088148;28;20003;-71
2023/11/27 09:01:35;;;;;;;;;;;10.40;93.50;;;;;;5088451;28;19916;-70
2023/11/27 09:04:02;;;;;;;;;;;10.40;93.50;;;;;;5087906;28;20282;-70
2023/11/27 09:06:28;;;;;;;;;;;10.40;93.50;;;;;;5088099;28;19908;-71
2023/11/27 09:08:54;;;;;;;;;;;10.40;93.50;;;;;;5087967;28;19908;-70
2023/11/27 09:11:20;;;;;;;;;;;10.50;93.60;;;;;;5088013;28;19966;-71
2023/11/27 09:13:46;;;;;;;;;;;10.50;93.50;;;;;;5089783;28;20344;-75
2023/11/27 09:16:11;;;;;;;;;;;10.50;93.50;;;;;;5088270;28;19908;-61
2023/11/27 09:18:37;;;;;;;;;;;10.50;93.50;;;;;;5087570;28;19912;-76
2023/11/27 09:21:03;;;;;;;;;;;10.40;93.50;;;;;;5086330;28;19919;-76
2023/11/27 09:23:29;;;;;;;;;;;10.40;93.50;;;;;;5086344;28;20006;-76
2023/11/27 09:25:54;;;;;;;;;;;10.30;93.50;;;;;;5088227;28;20008;-75
2023/11/27 09:28:20;;;;;;;;;;;10.30;93.50;;;;;;5087882;28;19923;-75
2023/11/27 09:30:47;;;;;;;;;;;10.20;93.50;;;;;;5086297;28;19912;-76
2023/11/27 09:33:13;;;;;;;;;;;10.20;93.60;;;;;;5085983;28;20002;-76
2023/11/27 09:35:39;;;;;;;;;;;10.20;93.60;;;;;;5088094;28;20008;-75
2023/11/27 09:38:07;;;;;;;;;;;10.20;93.60;;;;;;5087337;28;19918;-76
2023/11/27 09:40:37;;;;;;;;;;;10.20;93.50;;;;;;5087222;28;20038;-76
2023/11/27 09:43:03;;;;;;;;;;;10.20;93.50;;;;;;5087271;28;19909;-75
2023/11/27 09:45:28;;;;;;;;;;;10.30;93.60;;;;;;5088091;28;19927;-75
2023/11/27 09:47:54;;;;;;;;;;;10.30;93.60;;;;;;5086521;28;19914;-75
2023/11/27 09:50:20;;;;;;;;;;;10.40;93.60;;;;;;5088291;28;19977;-75
2023/11/27 09:53:10;;;;;;;;;;;10.40;93.60;;;;;;5086170;28;19909;-75
2023/11/27 09:55:39;;;;;;;;;;;10.50;93.60;;;;;;5088089;28;20489;-75
2023/11/27 09:58:06;;;;;;;;;;;10.50;93.50;;;;;;5087505;28;19962;-75
2023/11/27 10:00:32;;;;;;;;;;;10.40;93.40;;;;;;5087504;28;19926;-75
2023/11/27 10:02:58;;;;;;;;;;;10.30;93.40;;;;;;5087307;28;19967;-75
2023/11/27 10:05:24;;;;;;;;;;;10.20;93.40;;;;;;5087533;28;19908;-75
2023/11/27 10:07:51;;;;;;;;;;;10.10;93.50;;;;;;5087703;28;19914;-76
2023/11/27 10:10:25;;;;;;;;;;;10.00;93.60;;;;;;5078162;28;19947;-78
2023/11/27 10:12:58;;;;;;;;;;;10.00;93.60;;;;;;5074565;28;19959;-77
2023/11/27 10:15:26;;;;;;;;;;;10.00;93.60;;;;;;5068475;28;20347;-75
2023/11/27 10:17:53;;;;;;;;;;;10.00;93.60;;;;;;5068503;28;20306;-76
2023/11/27 10:20:22;;;;;;;;;;;10.00;93.60;;;;;;5068333;28;19977;-77
2023/11/27 10:22:47;;;;;;;;;;;10.00;93.60;;;;;;5085520;28;19999;-77
2023/11/27 10:25:16;;;;;;;;;;;10.00;93.60;;;;;;5087419;28;20019;-77
2023/11/27 10:27:43;;;;;;;;;;;10.00;93.60;;;;;;5088592;28;19919;-77
2023/11/27 10:30:24;;;;;;;;;;;10.00;93.60;;;;;;5088401;28;19969;-76
2023/11/27 10:32:51;;;;;;;;;;;10.00;93.70;;;;;;5081104;28;19955;-77
2023/11/27 10:35:17;;;;;;;;;;;10.10;93.80;;;;;;5068315;28;20380;-78
2023/11/27 10:37:43;;;;;;;;;;;10.30;94.10;;;;;;5086536;28;19951;-78
2023/11/27 10:40:18;;;;;;;;;;;10.70;94.40;;;;;;5067641;28;20338;-75
2023/11/27 10:42:47;;;;;;;;;;;11.00;94.20;;;;;;5052938;28;19966;-79
2023/11/27 10:45:17;;;;;;;;;;;11.10;93.90;;;;;;5050987;28;19919;-78
2023/11/27 10:47:47;;;;;;;;;;;11.10;93.90;;;;;;5068007;28;19979;-79
2023/11/27 10:50:13;;;;;;;;;;;11.00;93.80;;;;;;5071689;28;19961;-79
2023/11/27 10:52:40;;;;;;;;;;;11.10;94.10;;;;;;5088857;28;19912;-79
2023/11/27 10:55:08;;;;;;;;;;;11.30;94.40;;;;;;5083927;28;20234;-80
2023/11/27 10:57:34;;;;;;;;;;;11.80;94.80;;;;;;5077242;28;19948;-79
2023/11/27 10:59:59;;;;;;;;;;;12.30;94.90;;;;;;5082365;28;19912;-80
2023/11/27 11:02:25;;;;;;;;;;;12.90;94.80;;;;;;5091191;28;20351;-79
2023/11/27 11:04:51;;;;;;;;;;;13.10;94.40;;;;;;5092889;28;19912;-78
2023/11/27 11:07:50;;;;;;;;;;;13.10;94.10;;;;;;5091089;28;20007;-79
2023/11/27 11:10:17;;;;;;;;;;;12.80;93.90;;;;;;5058125;28;20438;-79
2023/11/27 11:12:44;;;;;;;;;;;12.50;93.90;;;;;;5092461;28;19914;-79
2023/11/27 11:15:15;;;;;;;;;;;12.30;94.00;;;;;;5092163;28;19938;-78
2023/11/27 11:17:44;;;;;;;;;;;12.30;94.40;;;;;;5092549;28;19989;-79
2023/11/27 11:20:19;;;;;;;;;;;12.20;94.20;;;;;;5091623;28;19934;-79
2023/11/27 11:23:03;;;;;;;;;;;12.10;94.10;;;;;;5092346;28;19920;-79
2023/11/27 11:25:36;;;;;;;;;;;11.90;93.90;;;;;;5090653;28;19912;-78
2023/11/27 11:28:05;;;;;;;;;;;11.50;93.80;;;;;;5091826;28;19951;-79
2023/11/27 11:30:32;;;;;;;;;;;11.30;93.70;;;;;;5091502;28;19908;-80
2023/11/27 11:32:57;;;;;;;;;;;11.00;93.80;;;;;;5081406;28;19912;-76
2023/11/27 11:35:27;;;;;;;;;;;10.80;93.90;;;;;;5078285;28;19919;-76
2023/11/27 11:37:52;;;;;;;;;;;10.70;93.90;;;;;;5083795;28;20406;-76
2023/11/27 11:40:18;;;;;;;;;;;10.60;93.90;;;;;;5084308;28;19916;-76
2023/11/27 11:42:44;;;;;;;;;;;10.50;93.90;;;;;;5078869;28;19977;-76
2023/11/27 11:47:54;;;;;;;;;;;10.50;93.90;;;;;;5081901;28;19987;-77
2023/11/27 11:50:25;;;;;;;;;;;10.50;93.90;;;;;;5080558;28;20352;-76
2023/11/27 11:52:55;;;;;;;;;;;10.50;93.90;;;;;;5081375;28;19912;-76
2023/11/27 11:55:22;;;;;;;;;;;10.40;93.90;;;;;;5076019;28;19917;-76
2023/11/27 11:57:48;;;;;;;;;;;10.40;93.90;;;;;;5075927;28;19912;-76
2023/11/27 12:00:19;;;;;;;;;;;10.40;93.80;;;;;;5079315;28;19913;-75
2023/11/27 12:02:50;;;;;;;;;;;10.40;93.80;;;;;;5076751;28;19931;-76
2023/11/27 12:05:16;;;;;;;;;;;10.30;93.80;;;;;;5081263;28;19917;-76
2023/11/27 12:07:41;;;;;;;;;;;10.30;93.80;;;;;;5076573;28;20388;-75
2023/11/27 12:10:07;;;;;;;;;;;10.30;94.30;;;;;;5084591;28;19931;-76
2023/11/27 12:12:33;;;;;;;;;;;10.90;94.80;;;;;;5070116;28;19920;-75
2023/11/27 12:15:00;;;;;;;;;;;11.10;94.50;;;;;;5070012;28;20007;-76
2023/11/27 12:17:29;;;;;;;;;;;11.00;94.30;;;;;;5070217;28;19909;-74
2023/11/27 12:19:55;;;;;;;;;;;10.90;94.10;;;;;;5070012;28;19999;-75
2023/11/27 12:22:21;;;;;;;;;;;10.70;93.90;;;;;;5070069;28;20006;-77
2023/11/27 12:24:50;;;;;;;;;;;10.60;94.10;;;;;;5070121;28;19944;-75
2023/11/27 12:27:16;;;;;;;;;;;10.60;94.10;;;;;;5070033;28;19909;-77
2023/11/27 12:29:44;;;;;;;;;;;10.50;94.00;;;;;;5070224;28;20293;-76
2023/11/27 12:32:10;;;;;;;;;;;10.40;94.00;;;;;;5068990;28;19942;-75
2023/11/27 12:34:35;;;;;;;;;;;10.40;93.90;;;;;;5069119;28;20391;-75
2023/11/27 12:37:06;;;;;;;;;;;10.30;93.90;;;;;;5069146;28;19919;-74
2023/11/27 12:39:32;;;;;;;;;;;10.40;94.00;;;;;;5068974;28;19995;-70
2023/11/27 12:42:01;;;;;;;;;;;10.50;94.00;;;;;;5067895;28;19916;-75
2023/11/27 12:44:30;;;;;;;;;;;10.50;93.90;;;;;;5067748;28;20391;-63
2023/11/27 12:46:56;;;;;;;;;;;10.50;94.00;;;;;;5069004;28;19920;-74
2023/11/27 12:49:24;;;;;;;;;;;10.60;93.90;;;;;;5069707;28;19909;-76
2023/11/27 12:51:51;;;;;;;;;;;10.50;93.80;;;;;;5068888;28;19955;-75
2023/11/27 12:54:20;;;;;;;;;;;10.50;93.80;;;;;;5069325;28;19917;-75
2023/11/27 12:56:48;;;;;;;;;;;10.50;93.90;;;;;;5069709;28;19912;-75
2023/11/27 12:59:16;;;;;;;;;;;10.60;93.90;;;;;;5068761;28;20440;-76
2023/11/27 13:01:57;;;;;;;;;;;10.60;93.80;;;;;;5067947;28;19917;-76
2023/11/27 13:04:36;;;;;;;;;;;10.60;93.80;;;;;;5068927;28;19952;-74
2023/11/27 13:07:09;;;;;;;;;;;10.70;94.00;;;;;;5069032;28;19917;-76
2023/11/27 13:09:35;;;;;;;;;;;10.80;93.90;;;;;;5069126;28;19912;-77
2023/11/27 13:12:15;;;;;;;;;;;10.90;93.80;;;;;;5068966;28;19928;-77
2023/11/27 13:14:43;;;;;;;;;;;11.00;93.70;;;;;;5068986;28;19912;-75
2023/11/27 13:17:10;;;;;;;;;;;10.90;93.50;;;;;;5085256;28;19920;-76
2023/11/27 13:19:35;;;;;;;;;;;10.90;93.40;;;;;;5088335;28;19912;-74
2023/11/27 13:22:01;;;;;;;;;;;10.70;93.50;;;;;;5088366;28;19923;-76
2023/11/27 13:24:29;;;;;;;;;;;10.70;93.50;;;;;;5088332;28;19981;-76
2023/11/27 13:26:55;;;;;;;;;;;10.60;93.60;;;;;;5089108;28;19912;-75
2023/11/27 13:29:25;;;;;;;;;;;10.50;93.50;;;;;;5083366;28;20292;-75
2023/11/27 13:31:51;;;;;;;;;;;10.40;93.40;;;;;;5074335;28;19922;-75
2023/11/27 13:34:36;;;;;;;;;;;10.30;93.40;;;;;;5067501;28;20480;-75
2023/11/27 13:37:07;;;;;;;;;;;10.10;93.50;;;;;;5088181;28;20379;-77
2023/11/27 13:39:54;;;;;;;;;;;10.20;94.30;;;;;;5073215;28;19920;-77
2023/11/27 13:42:22;;;;;;;;;;;10.60;95.00;;;;;;5067550;28;19916;-76
2023/11/27 13:44:49;;;;;;;;;;;11.20;95.30;;;;;;5066475;28;19924;-77
2023/11/27 13:47:20;;;;;;;;;;;11.40;94.80;;;;;;5068026;28;19913;-75
2023/11/27 13:49:54;;;;;;;;;;;11.30;94.30;;;;;;5068051;28;19918;-76
2023/11/27 13:52:23;;;;;;;;;;;11.10;94.00;;;;;;5067823;28;19951;-76
2023/11/27 13:54:48;;;;;;;;;;;11.00;93.90;;;;;;5066559;28;19925;-76
2023/11/27 13:57:26;;;;;;;;;;;10.70;93.80;;;;;;5066627;28;19912;-76
2023/11/27 13:59:51;;;;;;;;;;;10.50;93.80;;;;;;5067918;28;19909;-76
2023/11/27 14:02:17;;;;;;;;;;;10.40;94.00;;;;;;5067534;28;20379;-77
2023/11/27 14:04:54;;;;;;;;;;;10.30;94.20;;;;;;5068683;28;19977;-76
2023/11/27 14:07:20;;;;;;;;;;;10.30;94.30;;;;;;5066787;28;19920;-76
2023/11/27 14:12:14;;;;;;;;;;;10.30;94.20;;;;;;5086771;28;20280;-76
2023/11/27 14:14:48;;;;;;;;;;;10.30;94.10;;;;;;5087317;28;19919;-76
2023/11/27 14:17:19;;;;;;;;;;;10.10;93.90;;;;;;5086413;28;19912;-76
2023/11/27 14:22:55;;;;;;;;;;;10.00;93.80;;;;;;5088351;28;20078;-76